sensor_id;sensor_type;location;lat;lon;timestamp;temperature;humidity
23609;DHT22;11982;50.810;4.442;2023-10-09T00:01:06;15.20;99.90
23609;DHT22;11982;50.810;4.442;2023-10-09T00:03:42;15.40;99.90
23609;DHT22;11982;50.810;4.442;2023-10-09T00:06:09;15.20;99.90
23609;DHT22;11982;50.810;4.442;2023-10-09T00:08:39;15.30;99.90
23609;DHT22;11982;50.810;4.442;2023-10-09T00:11:10;15.30;99.90
23609;DHT22;11982;50.810;4.442;2023-10-09T00:13:41;15.20;99.90
23609;DHT22;11982;50.810;4.442;2023-10-09T00:16:18;15.30;99.90
23609;DHT22;11982;50.810;4.442;2023-10-09T00:19:01;15.30;99.90
23609;DHT22;11982;50.810;4.442;2023-10-09T00:21:49;15.20;99.90
23609;DHT22;11982;50.810;4.442;2023-10-09T00:24:15;15.20;99.90
23609;DHT22;11982;50.810;4.442;2023-10-09T00:26:49;15.10;99.90
23609;DHT22;11982;50.810;4.442;2023-10-09T00:29:16;15.00;99.90
23609;DHT22;11982;50.810;4.442;2023-10-09T00:31:54;14.90;99.90
23609;DHT22;11982;50.810;4.442;2023-10-09T00:34:30;15.10;99.90
23609;DHT22;11982;50.810;4.442;2023-10-09T00:36:56;15.10;99.90
23609;DHT22;11982;50.810;4.442;2023-10-09T00:39:29;15.30;99.90
23609;DHT22;11982;50.810;4.442;2023-10-09T00:42:01;15.30;99.90
23609;DHT22;11982;50.810;4.442;2023-10-09T00:44:28;15.40;99.90
23609;DHT22;11982;50.810;4.442;2023-10-09T00:47:07;15.60;99.90
23609;DHT22;11982;50.810;4.442;2023-10-09T00:50:09;15.70;99.90
23609;DHT22;11982;50.810;4.442;2023-10-09T00:52:42;15.60;99.90
23609;DHT22;11982;50.810;4.442;2023-10-09T00:55:17;15.50;99.90
23609;DHT22;11982;50.810;4.442;2023-10-09T00:57:48;15.30;99.90
23609;DHT22;11982;50.810;4.442;2023-10-09T01:00:16;15.40;99.90
23609;DHT22;11982;50.810;4.442;2023-10-09T01:03:01;15.50;99.90
23609;DHT22;11982;50.810;4.442;2023-10-09T01:05:51;15.40;99.90
23609;DHT22;11982;50.810;4.442;2023-10-09T01:08:41;15.30;99.90
23609;DHT22;11982;50.810;4.442;2023-10-09T01:11:11;15.30;99.90
23609;DHT22;11982;50.810;4.442;2023-10-09T01:13:45;15.10;99.90
23609;DHT22;11982;50.810;4.442;2023-10-09T01:16:18;15.20;99.90
23609;DHT22;11982;50.810;4.442;2023-10-09T01:18:51;15.30;99.90
23609;DHT22;11982;50.810;4.442;2023-10-09T01:21:18;15.40;99.90
23609;DHT22;11982;50.810;4.442;2023-10-09T01:23:47;15.40;99.90
23609;DHT22;11982;50.810;4.442;2023-10-09T01:26:35;15.40;99.90
23609;DHT22;11982;50.810;4.442;2023-10-09T01:29:15;15.40;99.90
23609;DHT22;11982;50.810;4.442;2023-10-09T01:34:20;15.40;99.90
23609;DHT22;11982;50.810;4.442;2023-10-09T01:36:52;15.50;99.90
23609;DHT22;11982;50.810;4.442;2023-10-09T01:39:24;15.60;99.90
23609;DHT22;11982;50.810;4.442;2023-10-09T01:41:53;15.80;99.90
23609;DHT22;11982;50.810;4.442;2023-10-09T01:44:25;15.60;99.90
23609;DHT22;11982;50.810;4.442;2023-10-09T01:49:36;15.50;99.90
23609;DHT22;11982;50.810;4.442;2023-10-09T01:52:07;15.60;99.90
23609;DHT22;11982;50.810;4.442;2023-10-09T01:54:39;15.60;99.90
23609;DHT22;11982;50.810;4.442;2023-10-09T01:57:12;15.60;99.90
23609;DHT22;11982;50.810;4.442;2023-10-09T01:59:43;15.40;99.90
23609;DHT22;11982;50.810;4.442;2023-10-09T02:02:15;15.40;99.90
23609;DHT22;11982;50.810;4.442;2023-10-09T02:04:51;15.50;99.90
23609;DHT22;11982;50.810;4.442;2023-10-09T02:07:17;15.40;99.90
23609;DHT22;11982;50.810;4.442;2023-10-09T02:09:53;15.40;99.90
23609;DHT22;11982;50.810;4.442;2023-10-09T02:12:19;15.50;99.90
23609;DHT22;11982;50.810;4.442;2023-10-09T02:14:47;15.60;99.90
23609;DHT22;11982;50.810;4.442;2023-10-09T02:17:13;15.60;99.90
23609;DHT22;11982;50.810;4.442;2023-10-09T02:19:45;15.60;99.90
23609;DHT22;11982;50.810;4.442;2023-10-09T02:22:15;15.50;99.90
23609;DHT22;11982;50.810;4.442;2023-10-09T02:24:43;15.50;99.90
23609;DHT22;11982;50.810;4.442;2023-10-09T02:27:35;15.60;99.90
23609;DHT22;11982;50.810;4.442;2023-10-09T02:30:19;15.70;99.90
23609;DHT22;11982;50.810;4.442;2023-10-09T02:32:54;15.80;99.90
23609;DHT22;11982;50.810;4.442;2023-10-09T02:35:32;15.80;99.90
23609;DHT22;11982;50.810;4.442;2023-10-09T02:38:05;15.90;99.90
23609;DHT22;11982;50.810;4.442;2023-10-09T02:40:33;16.00;99.90
23609;DHT22;11982;50.810;4.442;2023-10-09T02:43:08;15.90;99.90
23609;DHT22;11982;50.810;4.442;2023-10-09T02:45:43;16.00;99.90
23609;DHT22;11982;50.810;4.442;2023-10-09T02:48:17;16.00;99.90
23609;DHT22;11982;50.810;4.442;2023-10-09T02:50:46;16.00;99.90
23609;DHT22;11982;50.810;4.442;2023-10-09T02:53:12;16.00;99.90
23609;DHT22;11982;50.810;4.442;2023-10-09T02:55:45;15.90;99.90
23609;DHT22;11982;50.810;4.442;2023-10-09T02:58:34;15.90;99.90
23609;DHT22;11982;50.810;4.442;2023-10-09T03:01:02;15.70;99.90
23609;DHT22;11982;50.810;4.442;2023-10-09T03:03:27;15.70;99.90
23609;DHT22;11982;50.810;4.442;2023-10-09T03:05:53;15.80;99.90
23609;DHT22;11982;50.810;4.442;2023-10-09T03:08:19;15.80;99.90
23609;DHT22;11982;50.810;4.442;2023-10-09T03:10:45;15.60;99.90
23609;DHT22;11982;50.810;4.442;2023-10-09T03:13:11;15.60;99.90
23609;DHT22;11982;50.810;4.442;2023-10-09T03:15:38;15.50;99.90
23609;DHT22;11982;50.810;4.442;2023-10-09T03:18:04;15.50;99.90
23609;DHT22;11982;50.810;4.442;2023-10-09T03:20:31;15.50;99.90
23609;DHT22;11982;50.810;4.442;2023-10-09T03:22:56;15.40;99.90
23609;DHT22;11982;50.810;4.442;2023-10-09T03:25:23;15.40;99.90
23609;DHT22;11982;50.810;4.442;2023-10-09T03:27:50;15.40;99.90
23609;DHT22;11982;50.810;4.442;2023-10-09T03:30:18;15.30;99.90
23609;DHT22;11982;50.810;4.442;2023-10-09T03:32:57;15.40;99.90
23609;DHT22;11982;50.810;4.442;2023-10-09T03:35:26;15.40;99.90
23609;DHT22;11982;50.810;4.442;2023-10-09T03:37:59;15.30;99.90
23609;DHT22;11982;50.810;4.442;2023-10-09T03:40:54;15.30;99.90
23609;DHT22;11982;50.810;4.442;2023-10-09T03:43:20;15.40;99.90
23609;DHT22;11982;50.810;4.442;2023-10-09T03:45:47;15.50;99.90
23609;DHT22;11982;50.810;4.442;2023-10-09T03:48:19;15.50;99.90
23609;DHT22;11982;50.810;4.442;2023-10-09T03:50:52;15.60;99.90
23609;DHT22;11982;50.810;4.442;2023-10-09T03:53:37;15.40;99.90
23609;DHT22;11982;50.810;4.442;2023-10-09T03:56:05;15.30;99.90
23609;DHT22;11982;50.810;4.442;2023-10-09T03:58:38;15.20;99.90
23609;DHT22;11982;50.810;4.442;2023-10-09T04:01:11;15.30;99.90
23609;DHT22;11982;50.810;4.442;2023-10-09T04:04:00;15.20;99.90
23609;DHT22;11982;50.810;4.442;2023-10-09T04:06:30;15.20;99.90
23609;DHT22;11982;50.810;4.442;2023-10-09T04:11:50;15.00;99.90
23609;DHT22;11982;50.810;4.442;2023-10-09T04:14:35;15.00;99.90
23609;DHT22;11982;50.810;4.442;2023-10-09T04:17:01;15.00;99.90
23609;DHT22;11982;50.810;4.442;2023-10-09T04:19:32;15.10;99.90
23609;DHT22;11982;50.810;4.442;2023-10-09T04:22:16;15.00;99.90
23609;DHT22;11982;50.810;4.442;2023-10-09T04:24:51;14.90;99.90
23609;DHT22;11982;50.810;4.442;2023-10-09T04:27:17;15.00;99.90
23609;DHT22;11982;50.810;4.442;2023-10-09T04:29:44;15.00;99.90
23609;DHT22;11982;50.810;4.442;2023-10-09T04:32:12;15.10;99.90
23609;DHT22;11982;50.810;4.442;2023-10-09T04:34:44;15.00;99.90
23609;DHT22;11982;50.810;4.442;2023-10-09T04:37:21;15.10;99.90
23609;DHT22;11982;50.810;4.442;2023-10-09T04:40:04;15.00;99.90
23609;DHT22;11982;50.810;4.442;2023-10-09T04:42:59;15.10;99.90
23609;DHT22;11982;50.810;4.442;2023-10-09T04:45:25;15.10;99.90
23609;DHT22;11982;50.810;4.442;2023-10-09T04:48:10;15.10;99.90
23609;DHT22;11982;50.810;4.442;2023-10-09T04:50:36;15.10;99.90
23609;DHT22;11982;50.810;4.442;2023-10-09T04:53:12;15.10;99.90
23609;DHT22;11982;50.810;4.442;2023-10-09T04:55:41;15.20;99.90
23609;DHT22;11982;50.810;4.442;2023-10-09T04:58:09;15.20;99.90
23609;DHT22;11982;50.810;4.442;2023-10-09T05:00:39;15.20;99.90
23609;DHT22;11982;50.810;4.442;2023-10-09T05:03:08;15.10;99.90
23609;DHT22;11982;50.810;4.442;2023-10-09T05:05:52;15.10;99.90
23609;DHT22;11982;50.810;4.442;2023-10-09T05:08:25;15.10;99.90
23609;DHT22;11982;50.810;4.442;2023-10-09T05:10:58;15.20;99.90
23609;DHT22;11982;50.810;4.442;2023-10-09T05:13:44;15.20;99.90
23609;DHT22;11982;50.810;4.442;2023-10-09T05:16:18;15.20;99.90
23609;DHT22;11982;50.810;4.442;2023-10-09T05:18:45;15.20;99.90
23609;DHT22;11982;50.810;4.442;2023-10-09T05:21:22;15.20;99.90
23609;DHT22;11982;50.810;4.442;2023-10-09T05:24:01;15.20;99.90
23609;DHT22;11982;50.810;4.442;2023-10-09T05:26:48;15.20;99.90
23609;DHT22;11982;50.810;4.442;2023-10-09T05:29:21;15.30;99.90
23609;DHT22;11982;50.810;4.442;2023-10-09T05:32:06;15.30;99.90
23609;DHT22;11982;50.810;4.442;2023-10-09T05:34:38;15.20;99.90
23609;DHT22;11982;50.810;4.442;2023-10-09T05:40:42;15.20;99.90
23609;DHT22;11982;50.810;4.442;2023-10-09T05:46:07;15.20;99.90
23609;DHT22;11982;50.810;4.442;2023-10-09T05:48:36;15.30;99.90
23609;DHT22;11982;50.810;4.442;2023-10-09T05:51:05;15.30;99.90
23609;DHT22;11982;50.810;4.442;2023-10-09T05:53:59;15.30;99.90
23609;DHT22;11982;50.810;4.442;2023-10-09T05:56:37;15.20;99.90
23609;DHT22;11982;50.810;4.442;2023-10-09T05:59:21;15.20;99.90
23609;DHT22;11982;50.810;4.442;2023-10-09T06:02:05;15.30;99.90
23609;DHT22;11982;50.810;4.442;2023-10-09T06:05:03;15.30;99.90
23609;DHT22;11982;50.810;4.442;2023-10-09T06:07:49;15.30;99.90
23609;DHT22;11982;50.810;4.442;2023-10-09T06:10:32;15.30;99.90
23609;DHT22;11982;50.810;4.442;2023-10-09T06:13:07;15.30;99.90
23609;DHT22;11982;50.810;4.442;2023-10-09T06:15:39;15.20;99.90
23609;DHT22;11982;50.810;4.442;2023-10-09T06:18:13;15.30;99.90
23609;DHT22;11982;50.810;4.442;2023-10-09T06:20:51;15.20;99.90
23609;DHT22;11982;50.810;4.442;2023-10-09T06:23:55;15.20;99.90
23609;DHT22;11982;50.810;4.442;2023-10-09T06:26:40;15.40;99.90
23609;DHT22;11982;50.810;4.442;2023-10-09T06:29:18;15.60;99.90
23609;DHT22;11982;50.810;4.442;2023-10-09T06:32:04;15.70;99.90
23609;DHT22;11982;50.810;4.442;2023-10-09T06:35:00;15.60;99.90
23609;DHT22;11982;50.810;4.442;2023-10-09T06:37:48;15.50;99.90
23609;DHT22;11982;50.810;4.442;2023-10-09T06:40:36;15.50;99.90
23609;DHT22;11982;50.810;4.442;2023-10-09T06:43:06;15.40;99.90
23609;DHT22;11982;50.810;4.442;2023-10-09T06:45:56;15.50;99.90
23609;DHT22;11982;50.810;4.442;2023-10-09T06:48:27;15.60;99.90
23609;DHT22;11982;50.810;4.442;2023-10-09T06:51:03;15.50;99.90
23609;DHT22;11982;50.810;4.442;2023-10-09T06:53:44;15.50;99.90
23609;DHT22;11982;50.810;4.442;2023-10-09T06:56:19;15.60;99.90
23609;DHT22;11982;50.810;4.442;2023-10-09T06:59:02;15.80;99.90
23609;DHT22;11982;50.810;4.442;2023-10-09T07:01:47;15.90;99.90
23609;DHT22;11982;50.810;4.442;2023-10-09T07:04:33;16.00;99.90
23609;DHT22;11982;50.810;4.442;2023-10-09T07:06:59;16.00;99.90
23609;DHT22;11982;50.810;4.442;2023-10-09T07:09:27;16.00;99.90
23609;DHT22;11982;50.810;4.442;2023-10-09T07:12:08;16.10;99.90
23609;DHT22;11982;50.810;4.442;2023-10-09T07:14:51;16.50;99.90
23609;DHT22;11982;50.810;4.442;2023-10-09T07:17:50;16.60;99.90
23609;DHT22;11982;50.810;4.442;2023-10-09T07:20:18;16.70;99.90
23609;DHT22;11982;50.810;4.442;2023-10-09T07:23:03;16.80;99.90
23609;DHT22;11982;50.810;4.442;2023-10-09T07:25:41;17.10;99.90
23609;DHT22;11982;50.810;4.442;2023-10-09T07:28:09;17.30;99.90
23609;DHT22;11982;50.810;4.442;2023-10-09T07:30:54;17.20;99.90
23609;DHT22;11982;50.810;4.442;2023-10-09T07:33:23;17.00;99.90
23609;DHT22;11982;50.810;4.442;2023-10-09T07:36:00;16.80;99.90
23609;DHT22;11982;50.810;4.442;2023-10-09T07:38:31;16.70;99.90
23609;DHT22;11982;50.810;4.442;2023-10-09T07:41:10;16.50;99.90
23609;DHT22;11982;50.810;4.442;2023-10-09T07:43:37;16.40;99.90
23609;DHT22;11982;50.810;4.442;2023-10-09T07:46:16;16.40;99.90
23609;DHT22;11982;50.810;4.442;2023-10-09T07:49:20;16.50;99.90
23609;DHT22;11982;50.810;4.442;2023-10-09T07:51:52;16.70;99.90
23609;DHT22;11982;50.810;4.442;2023-10-09T07:54:21;16.70;99.90
23609;DHT22;11982;50.810;4.442;2023-10-09T07:56:59;16.90;99.90
23609;DHT22;11982;50.810;4.442;2023-10-09T07:59:37;17.20;99.90
23609;DHT22;11982;50.810;4.442;2023-10-09T08:02:07;17.30;99.90
23609;DHT22;11982;50.810;4.442;2023-10-09T08:04:39;17.30;99.90
23609;DHT22;11982;50.810;4.442;2023-10-09T08:07:13;17.30;99.90
23609;DHT22;11982;50.810;4.442;2023-10-09T08:09:48;17.20;99.90
23609;DHT22;11982;50.810;4.442;2023-10-09T08:12:15;17.30;99.90
23609;DHT22;11982;50.810;4.442;2023-10-09T08:15:02;17.50;99.90
23609;DHT22;11982;50.810;4.442;2023-10-09T08:17:52;17.40;99.90
23609;DHT22;11982;50.810;4.442;2023-10-09T08:20:39;17.40;99.90
23609;DHT22;11982;50.810;4.442;2023-10-09T08:23:36;17.30;99.90
23609;DHT22;11982;50.810;4.442;2023-10-09T08:26:15;17.20;99.90
23609;DHT22;11982;50.810;4.442;2023-10-09T08:28:54;17.20;99.90
23609;DHT22;11982;50.810;4.442;2023-10-09T08:31:40;17.20;99.90
23609;DHT22;11982;50.810;4.442;2023-10-09T08:34:17;17.20;99.90
23609;DHT22;11982;50.810;4.442;2023-10-09T08:36:52;17.30;99.90
23609;DHT22;11982;50.810;4.442;2023-10-09T08:39:20;17.30;99.90
23609;DHT22;11982;50.810;4.442;2023-10-09T08:41:53;17.30;99.90
23609;DHT22;11982;50.810;4.442;2023-10-09T08:44:23;17.30;99.90
23609;DHT22;11982;50.810;4.442;2023-10-09T08:46:56;17.50;99.90
23609;DHT22;11982;50.810;4.442;2023-10-09T08:49:26;17.60;99.90
23609;DHT22;11982;50.810;4.442;2023-10-09T08:51:53;17.60;99.90
23609;DHT22;11982;50.810;4.442;2023-10-09T08:54:19;17.50;99.90
23609;DHT22;11982;50.810;4.442;2023-10-09T08:56:48;17.50;99.90
23609;DHT22;11982;50.810;4.442;2023-10-09T08:59:18;17.50;99.90
23609;DHT22;11982;50.810;4.442;2023-10-09T09:01:48;17.60;99.90
23609;DHT22;11982;50.810;4.442;2023-10-09T09:04:38;17.50;99.90
23609;DHT22;11982;50.810;4.442;2023-10-09T09:07:23;17.60;99.90
23609;DHT22;11982;50.810;4.442;2023-10-09T09:09:59;17.60;99.90
23609;DHT22;11982;50.810;4.442;2023-10-09T09:12:54;17.80;99.90
23609;DHT22;11982;50.810;4.442;2023-10-09T09:15:27;18.00;99.90
23609;DHT22;11982;50.810;4.442;2023-10-09T09:18:04;18.00;99.90
23609;DHT22;11982;50.810;4.442;2023-10-09T09:20:36;18.10;99.90
23609;DHT22;11982;50.810;4.442;2023-10-09T09:23:10;18.20;99.90
23609;DHT22;11982;50.810;4.442;2023-10-09T09:25:44;18.30;99.90
23609;DHT22;11982;50.810;4.442;2023-10-09T09:28:13;18.30;99.90
23609;DHT22;11982;50.810;4.442;2023-10-09T09:30:45;18.30;99.90
23609;DHT22;11982;50.810;4.442;2023-10-09T09:33:24;18.20;99.90
23609;DHT22;11982;50.810;4.442;2023-10-09T09:38:26;18.30;99.90
23609;DHT22;11982;50.810;4.442;2023-10-09T09:40:57;18.40;99.90
23609;DHT22;11982;50.810;4.442;2023-10-09T09:43:26;18.60;99.90
23609;DHT22;11982;50.810;4.442;2023-10-09T09:45:56;18.80;99.90
23609;DHT22;11982;50.810;4.442;2023-10-09T09:48:23;18.90;99.90
23609;DHT22;11982;50.810;4.442;2023-10-09T09:50:49;18.90;99.90
23609;DHT22;11982;50.810;4.442;2023-10-09T09:53:20;19.00;99.90
23609;DHT22;11982;50.810;4.442;2023-10-09T09:55:52;18.90;99.90
23609;DHT22;11982;50.810;4.442;2023-10-09T09:58:26;19.10;99.90
23609;DHT22;11982;50.810;4.442;2023-10-09T10:01:14;19.30;99.90
23609;DHT22;11982;50.810;4.442;2023-10-09T10:03:58;19.30;99.90
23609;DHT22;11982;50.810;4.442;2023-10-09T10:06:25;19.30;99.90
23609;DHT22;11982;50.810;4.442;2023-10-09T10:08:54;19.40;99.90
23609;DHT22;11982;50.810;4.442;2023-10-09T10:11:45;19.50;99.90
23609;DHT22;11982;50.810;4.442;2023-10-09T10:14:14;19.70;99.90
23609;DHT22;11982;50.810;4.442;2023-10-09T10:17:04;19.60;99.90
23609;DHT22;11982;50.810;4.442;2023-10-09T10:28:27;19.60;99.90
23609;DHT22;11982;50.810;4.442;2023-10-09T10:34:10;19.70;99.90
23609;DHT22;11982;50.810;4.442;2023-10-09T10:36:37;19.70;99.90
23609;DHT22;11982;50.810;4.442;2023-10-09T10:39:09;19.80;99.90
23609;DHT22;11982;50.810;4.442;2023-10-09T10:42:14;19.90;99.90
23609;DHT22;11982;50.810;4.442;2023-10-09T10:45:02;19.90;99.90
23609;DHT22;11982;50.810;4.442;2023-10-09T10:47:40;19.80;99.90
23609;DHT22;11982;50.810;4.442;2023-10-09T10:50:08;19.80;99.90
23609;DHT22;11982;50.810;4.442;2023-10-09T10:53:13;19.80;99.90
23609;DHT22;11982;50.810;4.442;2023-10-09T10:56:01;19.90;99.90
23609;DHT22;11982;50.810;4.442;2023-10-09T10:58:54;20.00;99.90
23609;DHT22;11982;50.810;4.442;2023-10-09T11:01:35;20.00;99.90
23609;DHT22;11982;50.810;4.442;2023-10-09T11:04:21;20.00;99.90
23609;DHT22;11982;50.810;4.442;2023-10-09T11:06:56;19.90;99.90
23609;DHT22;11982;50.810;4.442;2023-10-09T11:12:28;20.20;99.90
23609;DHT22;11982;50.810;4.442;2023-10-09T11:15:09;20.30;99.90
23609;DHT22;11982;50.810;4.442;2023-10-09T11:18:14;20.40;99.90
23609;DHT22;11982;50.810;4.442;2023-10-09T11:20:56;20.60;99.90
23609;DHT22;11982;50.810;4.442;2023-10-09T11:23:29;20.80;99.90
23609;DHT22;11982;50.810;4.442;2023-10-09T11:26:02;20.90;99.90
23609;DHT22;11982;50.810;4.442;2023-10-09T11:29:05;20.60;99.90
23609;DHT22;11982;50.810;4.442;2023-10-09T11:31:41;20.90;99.90
23609;DHT22;11982;50.810;4.442;2023-10-09T11:34:20;21.00;99.90
23609;DHT22;11982;50.810;4.442;2023-10-09T11:36:58;21.00;99.90
23609;DHT22;11982;50.810;4.442;2023-10-09T11:39:25;21.20;99.90
23609;DHT22;11982;50.810;4.442;2023-10-09T11:42:05;21.10;99.90
23609;DHT22;11982;50.810;4.442;2023-10-09T11:44:41;21.10;99.90
23609;DHT22;11982;50.810;4.442;2023-10-09T11:47:11;21.10;99.90
23609;DHT22;11982;50.810;4.442;2023-10-09T11:49:55;21.00;99.90
23609;DHT22;11982;50.810;4.442;2023-10-09T11:52:30;21.00;99.90
23609;DHT22;11982;50.810;4.442;2023-10-09T11:55:22;20.90;99.90
23609;DHT22;11982;50.810;4.442;2023-10-09T11:57:51;20.90;99.90
23609;DHT22;11982;50.810;4.442;2023-10-09T12:00:17;20.80;99.90
23609;DHT22;11982;50.810;4.442;2023-10-09T12:02:55;20.80;99.90
23609;DHT22;11982;50.810;4.442;2023-10-09T12:05:21;21.20;99.90
23609;DHT22;11982;50.810;4.442;2023-10-09T12:07:48;21.30;99.90
23609;DHT22;11982;50.810;4.442;2023-10-09T12:10:21;21.00;99.90
23609;DHT22;11982;50.810;4.442;2023-10-09T12:12:54;20.90;99.90
23609;DHT22;11982;50.810;4.442;2023-10-09T12:15:23;21.20;99.90
23609;DHT22;11982;50.810;4.442;2023-10-09T12:17:50;21.30;99.90
23609;DHT22;11982;50.810;4.442;2023-10-09T12:20:19;21.40;99.90
23609;DHT22;11982;50.810;4.442;2023-10-09T12:23:05;21.30;99.90
23609;DHT22;11982;50.810;4.442;2023-10-09T12:25:32;21.50;99.90
23609;DHT22;11982;50.810;4.442;2023-10-09T12:27:59;21.40;99.90
23609;DHT22;11982;50.810;4.442;2023-10-09T12:30:30;21.40;99.90
23609;DHT22;11982;50.810;4.442;2023-10-09T12:32:57;21.60;99.90
23609;DHT22;11982;50.810;4.442;2023-10-09T12:35:26;21.30;99.90
23609;DHT22;11982;50.810;4.442;2023-10-09T12:37:54;21.30;99.90
23609;DHT22;11982;50.810;4.442;2023-10-09T12:40:23;21.30;99.90
23609;DHT22;11982;50.810;4.442;2023-10-09T12:42:57;21.60;99.90
23609;DHT22;11982;50.810;4.442;2023-10-09T12:45:26;21.80;99.90
23609;DHT22;11982;50.810;4.442;2023-10-09T12:47:53;22.10;99.90
23609;DHT22;11982;50.810;4.442;2023-10-09T12:50:26;22.00;99.90
23609;DHT22;11982;50.810;4.442;2023-10-09T12:52:58;22.00;99.90
23609;DHT22;11982;50.810;4.442;2023-10-09T12:55:28;22.20;99.90
23609;DHT22;11982;50.810;4.442;2023-10-09T12:58:00;22.10;99.90
23609;DHT22;11982;50.810;4.442;2023-10-09T13:00:32;21.80;99.90
23609;DHT22;11982;50.810;4.442;2023-10-09T13:02:59;21.60;99.90
23609;DHT22;11982;50.810;4.442;2023-10-09T13:05:27;21.60;99.90
23609;DHT22;11982;50.810;4.442;2023-10-09T13:07:53;21.60;99.90
23609;DHT22;11982;50.810;4.442;2023-10-09T13:10:23;21.60;99.90
23609;DHT22;11982;50.810;4.442;2023-10-09T13:12:49;21.50;99.90
23609;DHT22;11982;50.810;4.442;2023-10-09T13:15:21;21.50;99.90
23609;DHT22;11982;50.810;4.442;2023-10-09T13:17:46;21.60;99.90
23609;DHT22;11982;50.810;4.442;2023-10-09T13:20:13;21.70;99.90
23609;DHT22;11982;50.810;4.442;2023-10-09T13:22:39;21.80;99.90
23609;DHT22;11982;50.810;4.442;2023-10-09T13:25:09;21.70;99.90
23609;DHT22;11982;50.810;4.442;2023-10-09T13:27:45;21.60;99.90
23609;DHT22;11982;50.810;4.442;2023-10-09T13:30:19;21.40;99.90
23609;DHT22;11982;50.810;4.442;2023-10-09T13:32:51;21.40;99.90
23609;DHT22;11982;50.810;4.442;2023-10-09T13:35:18;21.50;99.90
23609;DHT22;11982;50.810;4.442;2023-10-09T13:37:45;21.30;99.90
23609;DHT22;11982;50.810;4.442;2023-10-09T13:40:22;21.30;99.90
23609;DHT22;11982;50.810;4.442;2023-10-09T13:42:55;21.30;99.90
23609;DHT22;11982;50.810;4.442;2023-10-09T13:45:26;21.50;99.90
23609;DHT22;11982;50.810;4.442;2023-10-09T13:47:59;21.70;99.90
23609;DHT22;11982;50.810;4.442;2023-10-09T13:50:28;21.80;99.90
23609;DHT22;11982;50.810;4.442;2023-10-09T13:52:58;21.90;99.90
23609;DHT22;11982;50.810;4.442;2023-10-09T13:55:23;22.10;99.90
23609;DHT22;11982;50.810;4.442;2023-10-09T13:57:57;21.80;99.90
23609;DHT22;11982;50.810;4.442;2023-10-09T14:00:23;21.70;99.90
23609;DHT22;11982;50.810;4.442;2023-10-09T14:03:00;21.50;99.90
23609;DHT22;11982;50.810;4.442;2023-10-09T14:05:39;21.60;99.90
23609;DHT22;11982;50.810;4.442;2023-10-09T14:08:19;21.60;99.90
23609;DHT22;11982;50.810;4.442;2023-10-09T14:10:44;21.70;99.90
23609;DHT22;11982;50.810;4.442;2023-10-09T14:13:14;21.80;99.90
23609;DHT22;11982;50.810;4.442;2023-10-09T14:15:42;21.70;99.90
23609;DHT22;11982;50.810;4.442;2023-10-09T14:18:08;21.60;99.90
23609;DHT22;11982;50.810;4.442;2023-10-09T14:20:37;21.60;99.90
23609;DHT22;11982;50.810;4.442;2023-10-09T14:23:03;21.50;99.90
23609;DHT22;11982;50.810;4.442;2023-10-09T14:25:38;21.50;99.90
23609;DHT22;11982;50.810;4.442;2023-10-09T14:28:11;21.50;99.90
23609;DHT22;11982;50.810;4.442;2023-10-09T14:30:37;21.60;99.90
23609;DHT22;11982;50.810;4.442;2023-10-09T14:33:10;21.70;99.90
23609;DHT22;11982;50.810;4.442;2023-10-09T14:35:44;21.40;99.90
23609;DHT22;11982;50.810;4.442;2023-10-09T14:38:10;21.20;99.90
23609;DHT22;11982;50.810;4.442;2023-10-09T14:40:45;21.30;99.90
23609;DHT22;11982;50.810;4.442;2023-10-09T14:43:11;21.20;99.90
23609;DHT22;11982;50.810;4.442;2023-10-09T14:45:46;21.00;99.90
23609;DHT22;11982;50.810;4.442;2023-10-09T14:48:17;21.00;99.90
23609;DHT22;11982;50.810;4.442;2023-10-09T14:50:55;21.00;99.90
23609;DHT22;11982;50.810;4.442;2023-10-09T14:53:30;21.00;99.90
23609;DHT22;11982;50.810;4.442;2023-10-09T14:55:56;21.00;99.90
23609;DHT22;11982;50.810;4.442;2023-10-09T14:58:22;21.00;99.90
23609;DHT22;11982;50.810;4.442;2023-10-09T15:00:51;21.00;99.90
23609;DHT22;11982;50.810;4.442;2023-10-09T15:03:18;21.00;99.90
23609;DHT22;11982;50.810;4.442;2023-10-09T15:05:45;21.00;99.90
23609;DHT22;11982;50.810;4.442;2023-10-09T15:08:11;21.20;99.90
23609;DHT22;11982;50.810;4.442;2023-10-09T15:10:50;21.20;99.90
23609;DHT22;11982;50.810;4.442;2023-10-09T15:13:22;20.90;99.90
23609;DHT22;11982;50.810;4.442;2023-10-09T15:15:54;20.90;99.90
23609;DHT22;11982;50.810;4.442;2023-10-09T15:18:21;20.90;99.90
23609;DHT22;11982;50.810;4.442;2023-10-09T15:20:48;20.80;99.90
23609;DHT22;11982;50.810;4.442;2023-10-09T15:23:14;20.60;99.90
23609;DHT22;11982;50.810;4.442;2023-10-09T15:25:40;20.60;99.90
23609;DHT22;11982;50.810;4.442;2023-10-09T15:30:54;20.30;99.90
23609;DHT22;11982;50.810;4.442;2023-10-09T15:33:25;20.30;99.90
23609;DHT22;11982;50.810;4.442;2023-10-09T15:35:56;20.30;99.90
23609;DHT22;11982;50.810;4.442;2023-10-09T15:38:22;20.30;99.90
23609;DHT22;11982;50.810;4.442;2023-10-09T15:40:49;20.30;99.90
23609;DHT22;11982;50.810;4.442;2023-10-09T15:43:14;20.20;99.90
23609;DHT22;11982;50.810;4.442;2023-10-09T15:45:44;20.10;99.90
23609;DHT22;11982;50.810;4.442;2023-10-09T15:48:16;20.20;99.90
23609;DHT22;11982;50.810;4.442;2023-10-09T15:50:45;20.10;99.90
23609;DHT22;11982;50.810;4.442;2023-10-09T15:53:18;20.20;99.90
23609;DHT22;11982;50.810;4.442;2023-10-09T15:55:44;20.20;99.90
23609;DHT22;11982;50.810;4.442;2023-10-09T15:58:10;20.30;99.90
23609;DHT22;11982;50.810;4.442;2023-10-09T16:00:36;20.40;99.90
23609;DHT22;11982;50.810;4.442;2023-10-09T16:03:03;20.60;99.90
23609;DHT22;11982;50.810;4.442;2023-10-09T16:05:33;20.60;99.90
23609;DHT22;11982;50.810;4.442;2023-10-09T16:08:02;20.70;99.90
23609;DHT22;11982;50.810;4.442;2023-10-09T16:10:29;20.70;99.90
23609;DHT22;11982;50.810;4.442;2023-10-09T16:16:10;20.90;99.90
23609;DHT22;11982;50.810;4.442;2023-10-09T16:18:39;20.80;99.90
23609;DHT22;11982;50.810;4.442;2023-10-09T16:21:05;20.70;99.90
23609;DHT22;11982;50.810;4.442;2023-10-09T16:23:34;20.60;99.90
23609;DHT22;11982;50.810;4.442;2023-10-09T16:25:59;20.50;99.90
23609;DHT22;11982;50.810;4.442;2023-10-09T16:28:27;20.40;99.90
23609;DHT22;11982;50.810;4.442;2023-10-09T16:30:53;20.30;99.90
23609;DHT22;11982;50.810;4.442;2023-10-09T16:33:20;20.40;99.90
23609;DHT22;11982;50.810;4.442;2023-10-09T16:35:45;20.30;99.90
23609;DHT22;11982;50.810;4.442;2023-10-09T16:38:14;20.20;99.90
23609;DHT22;11982;50.810;4.442;2023-10-09T16:40:40;20.10;99.90
23609;DHT22;11982;50.810;4.442;2023-10-09T16:43:06;20.10;99.90
23609;DHT22;11982;50.810;4.442;2023-10-09T16:45:39;20.10;99.90
23609;DHT22;11982;50.810;4.442;2023-10-09T16:48:11;19.90;99.90
23609;DHT22;11982;50.810;4.442;2023-10-09T16:50:40;19.70;99.90